ADDS METAR Data INFO
IDs: Format: Raw Decoded Include TAF

Data at: 0254 UTC 21 Oct 2017

KELK 210235Z AUTO 16018G23KT 10SM CLR 21/17 A2981 RMK AO2 T02060170
KELK 210215Z AUTO 16012G19KT 10SM CLR 21/17 A2980 RMK AO2 T02100165
KELK 210155Z AUTO 16010KT 10SM CLR 21/16 A2979 RMK AO2 T02140158
KELK 210135Z AUTO 16011G19KT 10SM CLR 22/16 A2979 RMK AO2 T02180155
KELK 210115Z AUTO 16013G21KT 10SM CLR 22/15 A2978 RMK AO2 T02200153
KELK 210055Z AUTO 16012KT 10SM CLR 22/16 A2978 RMK AO2 T02210156
KELK 210035Z AUTO 17015G21KT 10SM CLR 23/15 A2977 RMK AO2 T02270154
KELK 210015Z AUTO 17015G22KT 10SM CLR 23/15 A2977 RMK AO2 T02320154
KELK 202355Z AUTO 17012G18KT 10SM CLR 24/15 A2977 RMK AO2 T02380151 10255 20207
KELK 202335Z AUTO 18014G23KT 10SM SCT050 24/15 A2977 RMK AO2 T02440150
KELK 202315Z AUTO 17014G24KT 10SM BKN050 25/15 A2979 RMK AO2 T02480150
KELK 202255Z AUTO 17017G22KT 10SM BKN050 OVC055 26/15 A2979 RMK AO2 T02550153
KELK 202235Z AUTO 18015G25KT 10SM BKN044 25/16 A2980 RMK AO2 T02470156
KELK 202215Z AUTO 18019G23KT 10SM SCT037 25/16 A2981 RMK AO2 T02460158
KELK 202155Z AUTO 17016G24KT 10SM SCT037 24/16 A2982 RMK AO2 T02350158
KELK 202140Z AUTO 19018G23KT 10SM SCT035 24/16 A2982 RMK AO2 T02420157
KELK 202110Z AUTO 18022G26KT 10SM BKN031 24/16 A2983 RMK AO2 LTG DSNT SE T02370159
KELK 202055Z AUTO 18021G26KT 10SM BKN028 24/16 A2983 RMK AO2 T02370161
KELK 202035Z AUTO 18019G26KT 10SM BKN026 23/16 A2983 RMK AO2 T02290157
KELK 202015Z AUTO 18018KT 10SM BKN026 BKN120 23/16 A2983 RMK AO2 T02280157
KELK 201955Z AUTO 18019G26KT 10SM SCT026 BKN120 22/16 A2984 RMK AO2 T02200155
KELK 201935Z AUTO 18018G25KT 10SM BKN026 BKN033 22/16 A2985 RMK AO2 T02170155
KELK 201920Z AUTO 19019G24KT 10SM BKN026 BKN034 22/16 A2986 RMK AO2 T02230159
KELK 201855Z AUTO 18014G23KT 10SM BKN024 BKN031 OVC110 22/16 A2989 RMK AO2 T02150156
KELK 201835Z AUTO 19016G23KT 10SM SCT024 SCT029 BKN037 22/16 A2991 RMK AO2 T02220159
KELK 201815Z AUTO 19017G23KT 10SM BKN026 OVC039 21/16 A2992 RMK AO2 T02100155
KELK 201755Z AUTO 19015G23KT 10SM BKN026 OVC041 21/15 A2994 RMK AO2 T02110153 10229 20142
KELK 201735Z AUTO 18016G23KT 10SM BKN026 BKN031 BKN120 22/15 A2994 RMK AO2 T02190152
KELK 201715Z AUTO 19014G19KT 10SM SCT025 SCT120 23/16 A2994 RMK AO2 T02290160
KELK 201655Z AUTO 19018G23KT 10SM SCT021 SCT027 22/16 A2995 RMK AO2 T02170156
KELK 201635Z AUTO 18019G24KT 10SM SCT021 SCT027 SCT045 22/15 A2996 RMK AO2 T02160153
KELK 201615Z AUTO 19022G27KT 10SM CLR 21/15 A2996 RMK AO2 T02060150
KELK 201555Z AUTO 19016G20KT 10SM CLR 21/15 A2995 RMK AO2 T02100150
KELK 201535Z AUTO 16013KT 10SM CLR 20/15 A2996 RMK AO2 T02020148
KELK 201515Z AUTO 16012G17KT 10SM CLR 19/15 A2997 RMK AO2 T01900145
KELK 201455Z AUTO 17009KT 10SM CLR 18/14 A2996 RMK AO2 T01810142
KELK 201435Z AUTO 16013G16KT 10SM CLR 18/14 A2997 RMK AO2 T01760138
KELK 201415Z AUTO 16011G15KT 10SM CLR 17/14 A2997 RMK AO2 T01650135
KELK 201355Z AUTO 16010KT 10SM CLR 16/13 A2997 RMK AO2 T01560130
KELK 201335Z AUTO 16008KT 10SM SCT033 15/13 A2997 RMK AO2 T01470125
KELK 201315Z AUTO 16007KT 10SM BKN033 15/12 A2998 RMK AO2 T01460123
KELK 201255Z AUTO 17007KT 10SM BKN034 14/12 A2998 RMK AO2 T01430122
KELK 201235Z AUTO 17007KT 10SM SCT038 14/12 A2999 RMK AO2 T01430120
KELK 201215Z AUTO 17011G16KT 10SM SCT038 14/12 A2999 RMK AO2 T01430120
KELK 201155Z AUTO 17014G17KT 10SM CLR 14/12 A2998 RMK AO2 T01430118 10161 20142
KELK 201135Z AUTO 17013KT 10SM CLR 15/12 A2998 RMK AO2 T01450118
KELK 201115Z AUTO 17013G18KT 10SM SCT045 15/12 A2999 RMK AO2 T01450117
KELK 201055Z AUTO 17013G17KT 10SM CLR 15/12 A3000 RMK AO2 T01460116
KELK 201035Z AUTO 18012KT 10SM CLR 15/12 A3000 RMK AO2 T01480115
KELK 201015Z AUTO 18012KT 10SM CLR 15/12 A3001 RMK AO2 T01500115
KELK 200955Z AUTO 17010KT 10SM SCT050 15/11 A3001 RMK AO2 T01520114
KELK 200935Z AUTO 17010G15KT 10SM BKN050 15/11 A3001 RMK AO2 T01520111
KELK 200915Z AUTO 17009G14KT 10SM SCT043 SCT050 15/11 A3002 RMK AO2 T01500109
KELK 200855Z AUTO 17008KT 10SM SCT044 14/11 A3002 RMK AO2 T01440106
KELK 200835Z AUTO 18008KT 10SM SCT044 15/11 A3002 RMK AO2 T01460105
KELK 200815Z AUTO 17008KT 10SM SCT046 15/10 A3002 RMK AO2 T01480104
KELK 200755Z AUTO 18008KT 10SM CLR 15/10 A3003 RMK AO2 T01500103
KELK 200735Z AUTO 17008KT 10SM CLR 16/10 A3003 RMK AO2 T01550102
KELK 200715Z AUTO 17009KT 10SM CLR 16/10 A3003 RMK AO2 T01550102
KELK 200655Z AUTO 17012KT 10SM CLR 15/10 A3003 RMK AO2 T01530100
KELK 200635Z AUTO 17010KT 10SM CLR 16/10 A3003 RMK AO2 T01550098
KELK 200615Z AUTO 17009KT 10SM CLR 16/10 A3004 RMK AO2 T01600097
KELK 200555Z AUTO 17011KT 10SM CLR 16/10 A3004 RMK AO2 T01610097 10212 20157 402560105
KELK 200535Z AUTO 17012G16KT 10SM CLR 16/10 A3005 RMK AO2 T01600097
KELK 200515Z AUTO 17012KT 10SM CLR 16/10 A3005 RMK AO2 T01600095
KELK 200455Z AUTO 16010G14KT 10SM CLR 16/10 A3005 RMK AO2 T01570096
KELK 200435Z AUTO 17010KT 10SM CLR 16/10 A3006 RMK AO2 T01620095
KELK 200415Z AUTO 17009KT 10SM CLR 16/10 A3006 RMK AO2 T01600095
KELK 200355Z AUTO 16009KT 10SM CLR 16/10 A3006 RMK AO2 T01640095
KELK 200335Z AUTO 17009KT 10SM CLR 17/09 A3006 RMK AO2 T01680093
KELK 200315Z AUTO 17009KT 10SM CLR 18/09 A3005 RMK AO2 T01750091
KELK 200255Z AUTO 16010G14KT 10SM CLR 18/09 A3005 RMK AO2 T01800087
KELK 200235Z AUTO 16008KT 10SM CLR 18/09 A3005 RMK AO2 T01810085
KELK 200215Z AUTO 15009KT 10SM CLR 19/08 A3005 RMK AO2 T01850082
KELK 200155Z AUTO 16009KT 10SM CLR 19/08 A3004 RMK AO2 T01870083
KELK 200135Z AUTO 16008KT 10SM CLR 19/08 A3004 RMK AO2 T01940083
KELK 200115Z AUTO 15006KT 10SM CLR 19/08 A3004 RMK AO2 T01890080
KELK 200055Z AUTO 15008KT 10SM CLR 20/08 A3003 RMK AO2 T01960078
KELK 200035Z AUTO 16008KT 10SM CLR 20/08 A3003 RMK AO2 T02000075
KELK 200015Z AUTO 16009KT 10SM CLR 21/08 A3003 RMK AO2 T02050075
KELK 192355Z AUTO 16009G14KT 10SM CLR 21/07 A3002 RMK AO2 T02130074 10256 20213
KELK 192335Z AUTO 15011G15KT 10SM CLR 22/08 A3002 RMK AO2 T02210075
KELK 192315Z AUTO 16010KT 10SM CLR 23/08 A3002 RMK AO2 T02270080
KELK 192255Z AUTO 16011KT 10SM CLR 24/08 A3003 RMK AO2 T02350082
KELK 192240Z AUTO 16009G17KT 10SM CLR 24/07 A3003 RMK AO2 T02380072
KELK 192215Z AUTO 16011KT 10SM CLR 24/09 A3003 RMK AO2 T02440090
KELK 192155Z AUTO 17014G18KT 10SM CLR 24/08 A3003 RMK AO2 T02420078
KELK 192135Z AUTO 16015G20KT 10SM CLR 26/08 A3003 RMK AO2 T02550077
KELK 192115Z AUTO 16014G18KT 10SM CLR 25/08 A3003 RMK AO2 T02480079
KELK 192055Z AUTO 16012KT 10SM CLR 24/09 A3003 RMK AO2 T02420092
KELK 192035Z AUTO 18011G18KT 10SM CLR 24/09 A3003 RMK AO2 T02370093
KELK 192015Z AUTO 18011KT 10SM CLR 23/10 A3004 RMK AO2 T02340099
KELK 191955Z AUTO 17012KT 10SM CLR 24/10 A3004 RMK AO2 T02400095
KELK 191935Z AUTO 19016G20KT 10SM CLR 24/10 A3005 RMK AO2 T02440101
KELK 191915Z AUTO 17013G18KT 10SM CLR 24/10 A3006 RMK AO2 T02430099
KELK 191855Z AUTO 19013G19KT 10SM CLR 24/10 A3007 RMK AO2 T02400101
KELK 191835Z AUTO 19014G18KT 10SM CLR 23/10 A3008 RMK AO2 T02320101
KELK 191815Z AUTO 18012G20KT 10SM CLR 23/10 A3009 RMK AO2 T02280102
KELK 191755Z AUTO 19015G19KT 10SM CLR 23/10 A3010 RMK AO2 LTG DSNT W T02300104 10230 20105
KELK 191735Z AUTO 18015KT 10SM CLR 21/10 A3011 RMK AO2 T02120098
KELK 191715Z AUTO 19016KT 10SM CLR 21/09 A3012 RMK AO2 T02060094
KELK 191655Z AUTO 20013G18KT 10SM CLR 20/10 A3012 RMK AO2 T02020096
KELK 191635Z AUTO 17012G16KT 10SM CLR 19/10 A3012 RMK AO2 T01870095
KELK 191615Z AUTO 19010KT 10SM CLR 18/10 A3013 RMK AO2 T01840096
KELK 191555Z AUTO 19012KT 10SM CLR 17/09 A3012 RMK AO2 T01690090
KELK 191535Z AUTO 18009KT 10SM CLR 16/09 A3012 RMK AO2 T01550088
KELK 191515Z AUTO 17008KT 10SM CLR 14/08 A3012 RMK AO2 T01420083
KELK 191455Z AUTO 18009KT 10SM CLR 14/08 A3012 RMK AO2 T01420081